Green Bluff, Washington
Current Conditions -  °F | °C
As of 4:53 AM on Wednesday 22 Oct 2014 (Local Time) from KSFF Reporting Station
Clear Clear  
Wind Chill: 42°   Ceiling: Unl
Heat Index: 44°   Visibility: 10mi
Dew Point: 39°   Wind: 5mph
Humidity: 82%   Direction: 40°NE
Pressure: 29.94"   Gusts: NA
Location:  47.8288°N, 117.215°W
Report Text: KSFF 221153Z 04004KT 10SM CLR 07/04 A2994 RMK AO2 SLP139 T00670039 10083 20061 58014
Loading
Personal Weather Stations






























Interactive Weather Map
Tropical Storm Tracking
New forecast layout! Learn more

10-Day Weather Forecast

Advertisements
Track Severe Weather on mobile